Time;durP1;ratioP1;P1;durP2;ratioP2;P2;SDS_P1;SDS_P2;PMS_P1;PMS_P2;Temp;Humidity;BMP_temperature;BMP_pressure;BME280_temperature;BME280_humidity;BME280_pressure;Samples;Min_cycle;Max_cycle;Signal;HPM_P1;HPM_P2
2021/06/12 00:01:07;;;;;;;5.47;4.97;;;16.90;99.90;;;;;;6214605;23;20335;-74
2021/06/12 00:03:36;;;;;;;7.63;5.55;;;16.90;99.90;;;;;;6214746;23;20071;-75
2021/06/12 00:06:02;;;;;;;5.32;4.82;;;16.90;99.90;;;;;;6214884;23;19996;-75
2021/06/12 00:08:28;;;;;;;5.90;5.13;;;16.80;99.90;;;;;;6215277;23;20074;-75
2021/06/12 00:10:54;;;;;;;4.57;4.28;;;16.80;99.90;;;;;;6214922;23;20454;-75
2021/06/12 00:13:20;;;;;;;7.13;5.45;;;16.70;99.90;;;;;;6214917;23;20012;-75
2021/06/12 00:15:46;;;;;;;7.75;5.18;;;16.30;99.90;;;;;;6214848;23;20000;-75
2021/06/12 00:18:12;;;;;;;5.75;4.68;;;16.20;99.90;;;;;;6215107;23;19996;-74
2021/06/12 00:20:39;;;;;;;6.22;5.63;;;16.20;99.90;;;;;;6215041;23;20001;-75
2021/06/12 00:23:06;;;;;;;10.23;5.30;;;15.90;99.90;;;;;;6214611;23;20001;-74
2021/06/12 00:25:32;;;;;;;7.10;5.40;;;15.60;99.90;;;;;;6214957;23;20438;-75
2021/06/12 00:27:59;;;;;;;8.02;5.25;;;15.60;99.90;;;;;;6215004;23;20099;-75
2021/06/12 00:30:26;;;;;;;11.10;5.55;;;15.70;99.90;;;;;;6214732;23;20104;-75
2021/06/12 00:32:53;;;;;;;8.15;5.55;;;15.70;99.90;;;;;;6214888;23;20090;-75
2021/06/12 00:35:19;;;;;;;6.70;4.90;;;15.70;99.90;;;;;;6213867;23;20011;-74
2021/06/12 00:37:44;;;;;;;8.10;5.78;;;15.60;99.90;;;;;;6214742;23;20051;-74
2021/06/12 00:40:13;;;;;;;9.45;5.05;;;15.70;99.90;;;;;;6214149;23;20009;-75
2021/06/12 00:42:39;;;;;;;6.13;5.35;;;15.70;99.90;;;;;;6214671;23;20001;-75
2021/06/12 00:45:07;;;;;;;9.13;4.90;;;15.30;99.90;;;;;;6214473;23;20000;-75
2021/06/12 00:47:33;;;;;;;10.57;5.28;;;15.30;99.90;;;;;;6214208;23;20005;-75
2021/06/12 00:49:59;;;;;;;7.10;4.90;;;15.40;99.90;;;;;;6214929;23;19997;-75
2021/06/12 00:52:25;;;;;;;6.28;5.50;;;15.50;99.90;;;;;;6214435;23;20354;-75
2021/06/12 00:54:51;;;;;;;6.43;5.65;;;15.40;99.90;;;;;;6214158;23;20030;-74
2021/06/12 00:57:17;;;;;;;8.82;5.30;;;15.20;99.90;;;;;;6214476;23;19996;-75
2021/06/12 00:59:43;;;;;;;9.57;5.68;;;14.80;99.90;;;;;;6213983;23;20442;-75
2021/06/12 01:02:08;;;;;;;5.32;4.93;;;15.00;99.90;;;;;;6214709;23;20043;-75
2021/06/12 01:04:34;;;;;;;7.43;5.35;;;15.10;99.90;;;;;;6214651;23;20004;-75
2021/06/12 01:07:00;;;;;;;7.22;5.15;;;15.30;99.90;;;;;;6214858;23;20120;-75
2021/06/12 01:09:26;;;;;;;6.15;4.72;;;15.20;99.90;;;;;;6214008;23;20058;-75
2021/06/12 01:12:13;;;;;;;7.50;5.35;;;15.10;99.90;;;;;;6214584;23;19997;-75
2021/06/12 01:14:48;;;;;;;9.20;5.07;;;15.20;99.90;;;;;;6213761;23;20335;-74
2021/06/12 01:17:34;;;;;;;8.75;5.80;;;15.20;99.90;;;;;;6213838;23;20000;-75
2021/06/12 01:20:03;;;;;;;7.63;5.13;;;15.20;99.90;;;;;;6211631;23;20010;-75
2021/06/12 01:22:47;;;;;;;7.07;5.45;;;15.30;99.90;;;;;;6213639;23;20076;-75
2021/06/12 01:25:44;;;;;;;6.18;5.13;;;15.30;99.90;;;;;;6213120;23;20439;-74
2021/06/12 01:28:27;;;;;;;6.97;6.07;;;15.20;99.90;;;;;;6213616;23;20350;-75
2021/06/12 01:30:54;;;;;;;6.10;5.60;;;14.50;99.90;;;;;;6212400;23;19997;-75
2021/06/12 01:33:21;;;;;;;11.05;6.10;;;14.30;99.90;;;;;;6214657;23;20006;-75
2021/06/12 01:35:59;;;;;;;9.88;5.55;;;14.40;99.90;;;;;;6213722;23;19993;-74
2021/06/12 01:38:28;;;;;;;9.55;5.78;;;14.70;99.90;;;;;;6214417;23;20008;-74
2021/06/12 01:40:57;;;;;;;7.50;5.15;;;14.80;99.90;;;;;;6214254;23;20072;-75
2021/06/12 01:43:24;;;;;;;6.47;5.67;;;14.80;99.90;;;;;;6213948;23;20001;-74
2021/06/12 01:45:51;;;;;;;11.60;5.13;;;14.90;99.90;;;;;;6214444;23;20307;-75
2021/06/12 01:48:17;;;;;;;6.45;5.22;;;14.80;99.90;;;;;;6214086;23;20000;-74
2021/06/12 01:50:44;;;;;;;8.27;4.82;;;14.80;99.90;;;;;;6214391;23;19996;-74
2021/06/12 01:53:14;;;;;;;10.48;6.95;;;14.80;99.90;;;;;;6214066;23;20009;-75
2021/06/12 01:55:41;;;;;;;7.30;6.05;;;14.80;99.90;;;;;;6214185;23;19992;-75
2021/06/12 01:58:14;;;;;;;6.80;6.20;;;14.70;99.90;;;;;;6213672;23;20431;-74
2021/06/12 02:00:41;;;;;;;6.93;5.15;;;14.80;99.90;;;;;;6213637;23;20001;-74
2021/06/12 02:03:09;;;;;;;9.00;5.93;;;15.00;99.90;;;;;;6214751;23;20361;-74
2021/06/12 02:05:36;;;;;;;6.32;5.72;;;14.70;99.90;;;;;;6214326;23;20004;-75
2021/06/12 02:08:02;;;;;;;6.20;5.47;;;14.60;99.90;;;;;;6214248;23;20079;-74
2021/06/12 02:10:31;;;;;;;7.57;5.72;;;14.80;99.90;;;;;;6214449;23;20127;-74
2021/06/12 02:12:58;;;;;;;5.57;4.85;;;14.70;99.90;;;;;;6213930;23;19992;-74
2021/06/12 02:15:27;;;;;;;12.85;5.85;;;14.80;99.90;;;;;;6214432;23;20439;-74
2021/06/12 02:17:55;;;;;;;6.93;4.90;;;14.80;99.90;;;;;;6212711;23;20074;-74
2021/06/12 02:20:22;;;;;;;6.80;5.15;;;14.80;99.90;;;;;;6214523;23;20000;-75
2021/06/12 02:22:51;;;;;;;7.65;5.15;;;14.90;99.90;;;;;;6214059;23;20008;-74
2021/06/12 02:25:17;;;;;;;7.03;5.80;;;14.70;99.90;;;;;;6214156;23;20000;-75
2021/06/12 02:27:56;;;;;;;6.03;5.45;;;14.40;99.90;;;;;;6213689;23;20067;-74
2021/06/12 02:30:27;;;;;;;6.28;5.68;;;14.30;99.90;;;;;;6214534;23;20443;-74
2021/06/12 02:33:01;;;;;;;6.45;5.85;;;14.30;99.90;;;;;;6214191;23;19996;-75
2021/06/12 02:35:27;;;;;;;5.90;5.28;;;14.60;99.90;;;;;;6214424;23;20485;-75
2021/06/12 02:37:53;;;;;;;6.63;5.25;;;14.80;99.90;;;;;;6213695;23;20001;-75
2021/06/12 02:40:19;;;;;;;6.45;5.90;;;14.80;99.90;;;;;;6214343;23;20351;-75
2021/06/12 02:42:45;;;;;;;6.97;5.38;;;14.70;99.90;;;;;;6213683;23;20004;-74
2021/06/12 02:45:11;;;;;;;7.63;5.13;;;14.70;99.90;;;;;;6214270;23;20001;-74
2021/06/12 02:47:53;;;;;;;11.38;5.78;;;14.60;99.90;;;;;;6213978;23;20347;-75
2021/06/12 02:50:24;;;;;;;6.82;5.22;;;14.40;99.90;;;;;;6214245;23;19997;-74
2021/06/12 02:52:52;;;;;;;6.03;5.53;;;14.30;99.90;;;;;;6213833;23;20451;-74
2021/06/12 02:55:19;;;;;;;7.70;6.28;;;14.20;99.90;;;;;;6214024;23;20005;-75
2021/06/12 02:57:47;;;;;;;9.63;5.35;;;14.20;99.90;;;;;;6214022;23;20004;-75
2021/06/12 03:00:17;;;;;;;5.78;5.28;;;14.40;99.90;;;;;;6214152;23;20481;-74
2021/06/12 03:02:44;;;;;;;6.13;5.50;;;14.50;99.90;;;;;;6214004;23;20020;-75
2021/06/12 03:05:16;;;;;;;6.70;4.82;;;14.50;99.90;;;;;;6214451;23;20001;-75
2021/06/12 03:07:47;;;;;;;6.43;5.25;;;14.40;99.90;;;;;;6214204;23;20382;-74
2021/06/12 03:10:15;;;;;;;7.20;5.38;;;14.30;99.90;;;;;;6213439;23;20003;-74
2021/06/12 03:12:41;;;;;;;6.22;5.25;;;14.30;99.90;;;;;;6214262;23;20000;-74
2021/06/12 03:15:09;;;;;;;5.75;5.10;;;14.40;99.90;;;;;;6215607;23;19997;-74
2021/06/12 03:17:36;;;;;;;8.77;5.22;;;14.50;99.90;;;;;;6216009;23;20000;-74
2021/06/12 03:20:04;;;;;;;6.50;5.20;;;14.50;99.90;;;;;;6215917;23;20078;-74
2021/06/12 03:22:32;;;;;;;7.78;6.30;;;14.50;99.90;;;;;;6216067;23;20051;-74
2021/06/12 03:24:58;;;;;;;6.30;5.50;;;14.50;99.90;;;;;;6213797;23;20011;-74
2021/06/12 03:27:24;;;;;;;6.22;5.65;;;14.50;99.90;;;;;;6215707;23;20024;-74
2021/06/12 03:29:50;;;;;;;6.20;5.55;;;14.60;99.90;;;;;;6215678;23;19992;-74
2021/06/12 03:32:16;;;;;;;9.57;5.68;;;14.60;99.90;;;;;;6215931;23;19996;-74
2021/06/12 03:34:42;;;;;;;7.50;6.00;;;14.60;99.90;;;;;;6215765;23;20020;-74
2021/06/12 03:37:08;;;;;;;6.75;6.07;;;14.60;99.90;;;;;;6215407;23;20001;-74
2021/06/12 03:39:34;;;;;;;9.15;7.20;;;14.70;99.90;;;;;;6215173;23;20005;-74
2021/06/12 03:42:01;;;;;;;7.72;6.32;;;14.60;99.90;;;;;;6215281;23;20064;-74
2021/06/12 03:44:27;;;;;;;9.00;4.90;;;14.60;99.90;;;;;;6215522;23;20046;-74
2021/06/12 03:46:53;;;;;;;5.63;5.07;;;14.50;99.90;;;;;;6213891;23;20059;-74
2021/06/12 03:49:20;;;;;;;6.00;5.20;;;14.40;99.90;;;;;;6215740;23;20059;-75
2021/06/12 03:51:47;;;;;;;6.68;4.60;;;14.30;99.90;;;;;;6215418;23;20009;-74
2021/06/12 03:54:14;;;;;;;5.25;4.70;;;14.20;99.90;;;;;;6214878;23;20024;-74
2021/06/12 03:56:40;;;;;;;8.18;5.43;;;14.10;99.90;;;;;;6215589;23;20338;-74
2021/06/12 03:59:07;;;;;;;8.80;5.88;;;14.20;99.90;;;;;;6215563;23;19993;-74
2021/06/12 04:01:33;;;;;;;6.10;5.50;;;14.20;99.90;;;;;;6214875;23;19996;-75
2021/06/12 04:04:00;;;;;;;6.53;5.82;;;14.20;99.90;;;;;;6215412;23;20335;-74
2021/06/12 04:06:25;;;;;;;6.60;5.72;;;14.30;99.90;;;;;;6215222;23;20059;-74
2021/06/12 04:08:51;;;;;;;7.25;5.35;;;14.20;99.90;;;;;;6215352;23;20024;-74
2021/06/12 04:11:17;;;;;;;5.60;5.05;;;14.20;99.90;;;;;;6216069;23;19993;-74
2021/06/12 04:13:43;;;;;;;5.43;4.80;;;14.20;99.90;;;;;;6215974;23;19997;-74
2021/06/12 04:16:11;;;;;;;11.27;4.57;;;14.00;99.90;;;;;;6214198;23;20443;-74
2021/06/12 04:18:37;;;;;;;6.30;5.30;;;14.00;99.90;;;;;;6214030;23;20004;-85
2021/06/12 04:21:04;;;;;;;5.53;4.72;;;13.90;99.90;;;;;;6214695;23;20334;-85
2021/06/12 04:23:31;;;;;;;7.18;6.57;;;14.10;99.90;;;;;;6213098;23;20007;-75
2021/06/12 04:25:57;;;;;;;5.93;5.43;;;14.10;99.90;;;;;;6213108;23;20000;-76
2021/06/12 04:28:23;;;;;;;7.25;5.28;;;14.10;99.90;;;;;;6213911;23;20001;-78
2021/06/12 04:30:50;;;;;;;8.52;5.78;;;14.00;99.90;;;;;;6213960;23;19997;-76
2021/06/12 04:33:16;;;;;;;8.82;6.40;;;13.80;99.90;;;;;;6206000;23;20072;-77
2021/06/12 04:35:42;;;;;;;7.80;6.90;;;13.80;99.90;;;;;;6211881;23;19997;-76
2021/06/12 04:38:08;;;;;;;6.85;6.22;;;13.80;99.90;;;;;;6211529;23;20438;-76
2021/06/12 04:40:36;;;;;;;8.07;6.95;;;14.00;99.90;;;;;;6212326;23;20411;-75
2021/06/12 04:43:03;;;;;;;6.88;5.88;;;14.30;99.90;;;;;;6212690;23;20498;-75
2021/06/12 04:45:29;;;;;;;7.47;5.82;;;14.30;99.90;;;;;;6214204;23;20067;-75
2021/06/12 04:47:55;;;;;;;6.78;6.13;;;14.40;99.90;;;;;;6215262;23;20008;-75
2021/06/12 04:50:21;;;;;;;6.50;5.90;;;14.40;99.90;;;;;;6214885;23;20000;-74
2021/06/12 04:52:47;;;;;;;6.30;5.80;;;14.60;99.90;;;;;;6214335;23;20005;-75
2021/06/12 04:55:14;;;;;;;8.95;5.47;;;14.40;99.90;;;;;;6214866;23;20059;-75
2021/06/12 04:57:40;;;;;;;7.10;5.93;;;14.20;99.90;;;;;;6215020;23;20346;-75
2021/06/12 05:00:11;;;;;;;5.93;5.43;;;14.20;99.90;;;;;;6214622;23;20001;-74
2021/06/12 05:02:38;;;;;;;6.15;5.55;;;14.30;99.90;;;;;;6214948;23;20024;-75
2021/06/12 05:05:06;;;;;;;12.43;5.80;;;14.40;99.90;;;;;;6214896;23;20020;-75
2021/06/12 05:07:31;;;;;;;6.32;5.70;;;14.50;99.90;;;;;;6214356;23;20339;-75
2021/06/12 05:09:57;;;;;;;7.80;6.10;;;14.60;99.90;;;;;;6214939;23;19992;-75
2021/06/12 05:12:24;;;;;;;7.38;6.32;;;14.70;99.90;;;;;;6214756;23;19993;-75
2021/06/12 05:14:52;;;;;;;7.13;6.53;;;14.70;99.90;;;;;;6214827;23;19996;-75
2021/06/12 05:17:19;;;;;;;11.05;7.20;;;14.80;99.90;;;;;;6214447;23;20007;-75
2021/06/12 05:19:45;;;;;;;9.02;5.93;;;15.00;99.90;;;;;;6214279;23;19997;-75
2021/06/12 05:22:11;;;;;;;7.82;5.90;;;15.00;99.90;;;;;;6214116;23;20342;-75
2021/06/12 05:24:37;;;;;;;6.57;5.88;;;15.10;99.90;;;;;;6214852;23;19996;-75
2021/06/12 05:27:06;;;;;;;9.68;5.65;;;15.10;99.90;;;;;;6214603;23;20000;-75
2021/06/12 05:29:32;;;;;;;7.85;6.25;;;15.00;99.90;;;;;;6214659;23;20039;-75
2021/06/12 05:31:58;;;;;;;7.82;6.35;;;15.10;99.90;;;;;;6214783;23;19993;-75
2021/06/12 05:34:24;;;;;;;7.50;6.75;;;15.20;99.90;;;;;;6214558;23;20303;-75
2021/06/12 05:36:49;;;;;;;8.65;6.68;;;15.30;99.90;;;;;;6213872;23;20001;-74
2021/06/12 05:39:15;;;;;;;7.25;5.97;;;15.40;99.90;;;;;;6214337;23;19996;-75
2021/06/12 05:41:41;;;;;;;7.63;6.72;;;15.50;99.90;;;;;;6214859;23;20035;-75
2021/06/12 05:44:08;;;;;;;8.55;6.80;;;15.50;99.90;;;;;;6212827;23;20028;-75
2021/06/12 05:46:34;;;;;;;7.82;7.13;;;15.60;99.90;;;;;;6212669;23;20001;-75
2021/06/12 05:49:00;;;;;;;7.97;7.28;;;15.70;99.90;;;;;;6214649;23;19999;-75
2021/06/12 05:51:27;;;;;;;8.23;6.95;;;15.70;99.90;;;;;;6213787;23;20008;-75
2021/06/12 05:53:52;;;;;;;9.25;6.57;;;15.90;99.90;;;;;;6214650;23;20430;-75
2021/06/12 05:56:18;;;;;;;8.82;7.18;;;15.90;99.90;;;;;;6214417;23;20072;-74
2021/06/12 05:58:44;;;;;;;8.50;7.75;;;15.90;99.90;;;;;;6214429;23;19993;-75
2021/06/12 06:01:11;;;;;;;9.52;7.15;;;15.90;99.90;;;;;;6214539;23;20051;-75
2021/06/12 06:03:37;;;;;;;9.70;6.93;;;16.00;99.90;;;;;;6214110;23;20000;-76
2021/06/12 06:06:06;;;;;;;8.27;7.57;;;16.00;99.90;;;;;;6214504;23;20127;-74
2021/06/12 06:08:32;;;;;;;7.97;7.18;;;16.10;99.90;;;;;;6218552;23;20001;-75
2021/06/12 06:10:57;;;;;;;9.00;8.10;;;16.30;99.90;;;;;;6214602;23;20064;-75
2021/06/12 06:13:23;;;;;;;8.60;7.70;;;16.40;99.90;;;;;;6214164;23;20019;-75
2021/06/12 06:15:49;;;;;;;8.57;7.57;;;16.60;99.90;;;;;;6214126;23;20050;-75
2021/06/12 06:18:15;;;;;;;7.75;6.95;;;16.70;99.90;;;;;;6213565;23;20024;-75
2021/06/12 06:20:45;;;;;;;7.40;6.78;;;16.80;99.90;;;;;;6214858;23;20008;-75
2021/06/12 06:23:11;;;;;;;9.10;7.95;;;17.00;99.90;;;;;;6214824;23;20005;-75
2021/06/12 06:25:37;;;;;;;9.45;7.60;;;17.00;99.90;;;;;;6214950;23;20000;-75
2021/06/12 06:28:04;;;;;;;8.95;8.15;;;17.20;99.90;;;;;;6214567;23;20003;-75
2021/06/12 06:30:30;;;;;;;8.43;7.63;;;17.30;99.90;;;;;;6214055;23;20027;-75
2021/06/12 06:32:55;;;;;;;7.72;7.03;;;17.30;99.90;;;;;;6213778;23;19993;-75
2021/06/12 06:35:21;;;;;;;8.68;7.38;;;17.40;99.90;;;;;;6212124;23;20506;-75
2021/06/12 06:37:47;;;;;;;9.10;7.57;;;17.50;99.90;;;;;;6214392;23;20004;-75
2021/06/12 06:40:13;;;;;;;8.20;7.40;;;17.60;99.90;;;;;;6214242;23;20007;-75
2021/06/12 06:42:41;;;;;;;7.68;6.88;;;17.70;99.90;;;;;;6214275;23;20001;-75
2021/06/12 06:45:08;;;;;;;7.63;6.72;;;17.80;99.90;;;;;;6214360;23;19997;-76
2021/06/12 06:47:34;;;;;;;7.93;7.10;;;17.90;99.90;;;;;;6213808;23;20492;-77
2021/06/12 06:49:59;;;;;;;8.77;7.25;;;18.10;99.90;;;;;;6215846;23;19993;-76
2021/06/12 06:52:25;;;;;;;7.40;6.70;;;18.20;99.90;;;;;;6215781;23;20450;-76
2021/06/12 06:54:51;;;;;;;10.48;7.25;;;18.30;99.90;;;;;;6216171;23;20438;-78
2021/06/12 06:57:17;;;;;;;12.65;7.18;;;18.40;99.90;;;;;;6214242;23;20005;-76
2021/06/12 06:59:43;;;;;;;7.57;6.63;;;18.50;99.90;;;;;;6216211;23;20054;-76
2021/06/12 07:02:08;;;;;;;7.35;6.75;;;18.60;99.90;;;;;;6215480;23;20023;-76
2021/06/12 07:04:37;;;;;;;9.30;6.82;;;18.60;99.90;;;;;;6215216;23;19997;-76
2021/06/12 07:07:05;;;;;;;7.88;7.18;;;18.80;99.90;;;;;;6215457;23;20004;-76
2021/06/12 07:09:31;;;;;;;15.30;6.78;;;19.00;99.90;;;;;;6215408;23;20007;-76
2021/06/12 07:11:59;;;;;;;8.93;7.93;;;19.10;99.90;;;;;;6216071;23;20016;-76
2021/06/12 07:14:26;;;;;;;8.23;6.95;;;19.20;99.90;;;;;;6215527;23;20016;-76
2021/06/12 07:16:52;;;;;;;7.47;6.85;;;19.30;99.90;;;;;;6215377;23;20008;-78
2021/06/12 07:19:19;;;;;;;8.00;7.35;;;19.40;99.90;;;;;;6216015;23;20343;-77
2021/06/12 07:21:46;;;;;;;7.97;6.97;;;19.40;99.90;;;;;;6215615;23;20008;-77
2021/06/12 07:24:12;;;;;;;7.18;6.57;;;19.50;99.90;;;;;;6215586;23;20000;-77
2021/06/12 07:26:38;;;;;;;10.25;9.20;;;19.60;99.90;;;;;;6215288;23;20011;-78
2021/06/12 07:29:04;;;;;;;9.93;9.13;;;19.70;99.90;;;;;;6215753;23;19993;-77
2021/06/12 07:31:31;;;;;;;11.50;9.88;;;20.00;99.90;;;;;;6215032;23;19996;-78
2021/06/12 07:33:57;;;;;;;11.55;10.50;;;20.10;99.90;;;;;;6214105;23;20000;-78
2021/06/12 07:36:23;;;;;;;32.65;11.70;;;20.10;99.90;;;;;;6215682;23;20481;-78
2021/06/12 07:38:49;;;;;;;26.63;10.85;;;20.30;99.90;;;;;;6215839;23;20024;-78
2021/06/12 07:41:15;;;;;;;10.55;9.55;;;20.30;99.90;;;;;;6215357;23;19993;-77
2021/06/12 07:43:40;;;;;;;11.88;10.25;;;20.30;99.90;;;;;;6215328;23;20454;-78
2021/06/12 07:46:06;;;;;;;10.98;10.00;;;20.40;99.90;;;;;;6215155;23;20323;-78
2021/06/12 07:48:32;;;;;;;10.40;9.45;;;20.50;99.90;;;;;;6215257;23;20004;-78
2021/06/12 07:50:58;;;;;;;9.95;9.05;;;20.60;99.90;;;;;;6215243;23;20001;-78
2021/06/12 07:53:23;;;;;;;10.20;9.30;;;20.70;99.90;;;;;;6215534;23;20028;-78
2021/06/12 07:55:49;;;;;;;11.13;10.13;;;20.80;99.90;;;;;;6215215;23;19992;-78
2021/06/12 07:58:15;;;;;;;12.35;10.50;;;21.00;99.90;;;;;;6215230;23;20119;-78
2021/06/12 08:00:41;;;;;;;11.20;10.05;;;21.10;99.90;;;;;;6214315;23;20447;-78
2021/06/12 08:03:06;;;;;;;11.18;9.57;;;21.10;99.90;;;;;;6215438;23;20442;-78
2021/06/12 08:05:32;;;;;;;13.07;10.15;;;21.20;99.90;;;;;;6214610;23;20009;-78
2021/06/12 08:07:58;;;;;;;12.07;10.15;;;21.30;99.90;;;;;;6213472;23;20088;-78
2021/06/12 08:10:25;;;;;;;12.80;10.45;;;21.60;99.90;;;;;;6215222;23;19993;-78
2021/06/12 08:12:51;;;;;;;13.52;10.43;;;21.70;99.90;;;;;;6215058;23;20042;-78
2021/06/12 08:15:17;;;;;;;13.20;11.85;;;22.20;99.90;;;;;;6214855;23;19997;-78
2021/06/12 08:17:43;;;;;;;12.25;10.73;;;22.60;99.90;;;;;;6214875;23;20004;-78
2021/06/12 08:20:10;;;;;;;14.55;11.40;;;23.10;99.90;;;;;;6215172;23;20000;-78
2021/06/12 08:22:36;;;;;;;11.45;10.38;;;23.70;99.90;;;;;;6215263;23;20051;-78
2021/06/12 08:25:03;;;;;;;11.23;10.13;;;24.20;99.90;;;;;;6215344;23;20004;-78
2021/06/12 08:27:29;;;;;;;11.82;10.73;;;24.40;99.90;;;;;;6215061;23;20438;-78
2021/06/12 08:29:55;;;;;;;11.65;10.55;;;24.60;99.90;;;;;;6214674;23;19993;-78
2021/06/12 08:32:21;;;;;;;12.32;11.13;;;24.80;99.90;;;;;;6215530;23;20008;-78
2021/06/12 08:34:46;;;;;;;14.75;10.80;;;25.40;99.90;;;;;;6215186;23;20386;-78
2021/06/12 08:37:12;;;;;;;18.83;11.00;;;25.50;99.90;;;;;;6213720;23;20342;-78
2021/06/12 08:39:38;;;;;;;11.73;10.57;;;25.80;99.90;;;;;;6213611;23;20028;-78
2021/06/12 08:42:04;;;;;;;10.98;9.98;;;25.60;99.90;;;;;;6215175;23;19996;-78
2021/06/12 08:44:30;;;;;;;10.73;9.73;;;25.80;99.90;;;;;;6214709;23;19996;-78
2021/06/12 08:46:56;;;;;;;11.90;10.80;;;25.70;99.90;;;;;;6215182;23;20008;-78
2021/06/12 08:49:22;;;;;;;11.73;10.57;;;25.40;99.90;;;;;;6215294;23;20000;-78
2021/06/12 08:51:48;;;;;;;10.70;9.70;;;25.20;99.90;;;;;;6214849;23;20447;-78
2021/06/12 08:54:19;;;;;;;14.52;10.35;;;24.30;99.90;;;;;;6215148;23;20003;-78
2021/06/12 08:56:46;;;;;;;11.90;10.80;;;23.80;99.90;;;;;;6214880;23;20462;-78
2021/06/12 08:59:12;;;;;;;13.55;11.73;;;23.40;99.90;;;;;;6214900;23;20004;-78
2021/06/12 09:01:38;;;;;;;12.65;11.50;;;23.60;99.90;;;;;;6213550;23;20430;-78
2021/06/12 09:04:05;;;;;;;12.88;11.77;;;23.80;99.90;;;;;;6214989;23;19997;-78
2021/06/12 09:06:31;;;;;;;11.38;10.27;;;23.80;99.90;;;;;;6214986;23;20005;-78
2021/06/12 09:08:58;;;;;;;12.95;10.40;;;24.00;99.90;;;;;;6214703;23;20004;-78
2021/06/12 09:11:25;;;;;;;10.60;9.60;;;24.00;99.90;;;;;;6214624;23;20046;-78
2021/06/12 09:13:54;;;;;;;10.73;9.73;;;24.30;99.90;;;;;;6214516;23;20007;-78
2021/06/12 09:16:32;;;;;;;10.32;9.30;;;24.60;99.90;;;;;;6213326;23;20028;-78
2021/06/12 09:19:20;;;;;;;11.65;9.93;;;24.50;99.90;;;;;;6214714;23;20438;-78
2021/06/12 09:21:55;;;;;;;11.65;10.55;;;24.30;99.90;;;;;;6214826;23;20020;-78
2021/06/12 09:24:27;;;;;;;11.05;10.05;;;24.40;99.90;;;;;;6215090;23;20003;-78
2021/06/12 09:26:54;;;;;;;10.63;9.15;;;24.60;99.90;;;;;;6214216;23;20123;-78
2021/06/12 09:29:20;;;;;;;10.20;9.07;;;24.70;99.90;;;;;;6214935;23;20127;-78
2021/06/12 09:31:51;;;;;;;10.30;8.85;;;24.90;99.90;;;;;;6214509;23;19997;-78
2021/06/12 09:34:26;;;;;;;9.65;8.93;;;24.40;99.90;;;;;;6214893;23;20000;-78
2021/06/12 09:36:52;;;;;;;9.10;8.20;;;23.70;99.90;;;;;;6214673;23;20007;-78
2021/06/12 09:39:22;;;;;;;9.93;8.90;;;24.00;99.90;;;;;;6214828;23;20007;-78
2021/06/12 09:41:51;;;;;;;11.70;7.72;;;24.20;99.90;;;;;;6214363;23;20004;-78
2021/06/12 09:44:36;;;;;;;8.48;7.72;;;24.70;99.90;;;;;;6214501;23;20000;-78
2021/06/12 09:47:21;;;;;;;8.30;7.50;;;25.30;99.90;;;;;;6214917;23;19996;-78
2021/06/12 09:49:47;;;;;;;8.07;7.28;;;25.70;99.90;;;;;;6214706;23;19996;-78
2021/06/12 09:52:15;;;;;;;10.52;8.02;;;25.80;99.90;;;;;;6214291;23;20000;-78
2021/06/12 09:54:46;;;;;;;9.02;7.70;;;25.80;99.90;;;;;;6214473;23;20024;-78
2021/06/12 09:57:14;;;;;;;8.80;7.90;;;26.30;99.90;;;;;;6214273;23;20079;-78
2021/06/12 09:59:48;;;;;;;8.23;7.53;;;26.20;99.90;;;;;;6215380;23;20001;-78
2021/06/12 10:02:52;;;;;;;7.93;7.10;;;26.30;99.90;;;;;;6214589;23;20075;-78
2021/06/12 10:05:17;;;;;;;10.25;7.82;;;26.80;99.90;;;;;;6214603;23;20327;-78
2021/06/12 10:07:43;;;;;;;9.77;8.02;;;26.40;99.90;;;;;;6214577;23;20000;-78
2021/06/12 10:10:12;;;;;;;8.10;7.30;;;25.70;99.90;;;;;;6214081;23;20386;-78
2021/06/12 10:12:38;;;;;;;8.27;7.55;;;26.10;99.90;;;;;;6214366;23;19992;-78
2021/06/12 10:15:08;;;;;;;8.32;7.50;;;26.30;99.90;;;;;;6214446;23;20486;-78
2021/06/12 10:17:49;;;;;;;8.85;8.05;;;26.40;99.90;;;;;;6214570;23;20001;-78
2021/06/12 10:20:20;;;;;;;9.25;8.43;;;26.90;99.90;;;;;;6214308;23;20086;-78
2021/06/12 10:22:49;;;;;;;9.23;7.90;;;27.70;99.90;;;;;;6215421;23;20003;-78
2021/06/12 10:25:16;;;;;;;9.15;8.20;;;30.70;99.90;;;;;;6216062;23;20001;-78
2021/06/12 10:27:42;;;;;;;8.45;7.65;;;34.60;99.90;;;;;;6214808;23;20471;-78
2021/06/12 10:30:11;;;;;;;7.68;6.97;;;36.80;98.40;;;;;;6216237;23;19997;-78
2021/06/12 10:32:46;;;;;;;8.32;7.63;;;36.30;92.40;;;;;;6216579;23;19997;-78
2021/06/12 10:35:17;;;;;;;11.90;8.95;;;37.30;87.90;;;;;;6216725;23;20000;-78
2021/06/12 10:38:08;;;;;;;9.32;7.32;;;36.90;84.10;;;;;;6216919;23;20000;-78
2021/06/12 10:40:42;;;;;;;7.60;6.88;;;37.80;83.60;;;;;;6215902;23;20008;-78
2021/06/12 10:43:11;;;;;;;8.15;7.40;;;38.50;80.70;;;;;;6216297;23;20347;-78
2021/06/12 10:45:37;;;;;;;11.57;7.60;;;38.50;77.80;;;;;;6216747;23;20066;-78
2021/06/12 10:48:04;;;;;;;20.85;8.07;;;38.50;75.40;;;;;;6216340;23;20090;-79
2021/06/12 10:50:34;;;;;;;10.07;7.78;;;39.50;78.30;;;;;;6216528;23;20308;-79
2021/06/12 10:53:18;;;;;;;7.40;6.80;;;39.90;75.20;;;;;;6215731;23;20083;-79
2021/06/12 10:55:52;;;;;;;10.45;7.82;;;40.20;73.50;;;;;;6216043;23;20072;-79
2021/06/12 10:58:36;;;;;;;9.50;7.35;;;40.20;73.50;;;;;;6216307;23;19997;-79
2021/06/12 11:01:24;;;;;;;9.07;8.35;;;40.70;69.20;;;;;;6216060;23;20071;-79
2021/06/12 11:04:10;;;;;;;8.80;7.93;;;40.80;68.80;;;;;;6216176;23;19992;-79
2021/06/12 11:06:41;;;;;;;8.63;7.82;;;40.40;70.00;;;;;;6216052;23;20007;-79
2021/06/12 11:09:17;;;;;;;8.80;8.00;;;39.90;68.60;;;;;;6215597;23;20390;-79
2021/06/12 11:11:45;;;;;;;8.65;8.05;;;39.50;69.80;;;;;;6216193;23;20031;-79
2021/06/12 11:14:25;;;;;;;8.70;8.02;;;40.00;69.70;;;;;;6215809;23;19997;-79
2021/06/12 11:17:17;;;;;;;11.70;8.52;;;39.90;68.80;;;;;;6216091;23;20334;-79
2021/06/12 11:19:56;;;;;;;9.45;8.63;;;40.30;67.90;;;;;;6210971;23;20009;-79
2021/06/12 11:22:26;;;;;;;8.95;8.07;;;40.40;67.00;;;;;;6216063;23;20004;-79
2021/06/12 11:25:13;;;;;;;8.98;8.05;;;41.00;66.10;;;;;;6215579;23;20171;-79
2021/06/12 11:27:50;;;;;;;8.73;7.93;;;41.00;67.00;;;;;;6194950;23;20000;-79
2021/06/12 11:30:22;;;;;;;9.48;8.60;;;41.60;67.30;;;;;;6215710;23;19993;-79
2021/06/12 11:32:49;;;;;;;8.73;7.93;;;41.90;64.70;;;;;;6215811;23;19996;-79
2021/06/12 11:35:44;;;;;;;9.57;8.48;;;41.70;63.90;;;;;;6215264;23;20003;-79
2021/06/12 11:38:18;;;;;;;8.38;7.65;;;42.00;66.10;;;;;;6215343;23;20001;-79
2021/06/12 11:40:53;;;;;;;8.88;8.10;;;42.10;62.00;;;;;;6215736;23;20072;-79
2021/06/12 11:43:31;;;;;;;8.70;8.00;;;42.10;61.50;;;;;;6215683;23;20074;-79
2021/06/12 11:45:56;;;;;;;8.70;8.10;;;42.60;63.50;;;;;;6215621;23;20023;-79
2021/06/12 11:48:24;;;;;;;9.55;8.73;;;42.30;62.70;;;;;;6215644;23;20000;-79
2021/06/12 11:50:50;;;;;;;8.88;8.13;;;41.80;59.80;;;;;;6215705;23;19996;-79
2021/06/12 11:53:18;;;;;;;8.65;7.95;;;41.70;61.50;;;;;;6214868;23;20005;-79
2021/06/12 11:55:45;;;;;;;9.73;8.80;;;41.30;62.10;;;;;;6215893;23;19993;-79
2021/06/12 11:58:11;;;;;;;8.38;7.57;;;40.70;60.30;;;;;;6215121;23;20015;-79
2021/06/12 12:00:40;;;;;;;8.88;8.00;;;41.60;61.00;;;;;;6215762;23;20080;-79
2021/06/12 12:03:07;;;;;;;7.93;7.40;;;41.70;60.80;;;;;;6215614;23;20518;-79
2021/06/12 12:05:37;;;;;;;8.57;7.88;;;42.30;60.60;;;;;;6215459;23;20001;-79
2021/06/12 12:08:16;;;;;;;8.18;7.57;;;42.60;61.10;;;;;;6215357;23;20443;-77
2021/06/12 12:10:49;;;;;;;12.50;7.63;;;42.40;58.40;;;;;;6215533;23;20000;-77
2021/06/12 12:13:37;;;;;;;8.02;7.35;;;41.60;57.20;;;;;;6213875;23;20007;-77
2021/06/12 12:16:04;;;;;;;8.27;7.50;;;42.50;60.10;;;;;;6215359;23;19993;-77
2021/06/12 12:18:42;;;;;;;14.98;7.68;;;43.00;58.80;;;;;;6215540;23;20335;-77
2021/06/12 12:21:10;;;;;;;8.27;7.50;;;42.60;58.20;;;;;;6211778;23;20365;-77
2021/06/12 12:23:37;;;;;;;7.97;7.27;;;43.30;59.00;;;;;;6212072;23;20005;-77
2021/06/12 12:26:11;;;;;;;7.85;7.15;;;43.90;57.60;;;;;;6215305;23;20239;-77
2021/06/12 12:28:55;;;;;;;8.00;7.05;;;43.60;58.20;;;;;;6215500;23;20483;-77
2021/06/12 12:31:29;;;;;;;7.55;6.82;;;43.10;58.40;;;;;;6215275;23;20075;-77
2021/06/12 12:33:56;;;;;;;7.57;6.78;;;43.30;55.60;;;;;;6216124;23;19993;-77
2021/06/12 12:36:23;;;;;;;7.75;7.00;;;43.00;55.90;;;;;;6214803;23;20031;-77
2021/06/12 12:39:09;;;;;;;7.63;6.88;;;42.20;59.10;;;;;;6215784;23;20477;-77
2021/06/12 12:41:35;;;;;;;8.68;7.10;;;43.50;58.20;;;;;;6214784;23;20330;-77
2021/06/12 12:44:07;;;;;;;7.25;6.75;;;43.50;55.50;;;;;;6214866;23;20072;-77
2021/06/12 12:46:35;;;;;;;7.22;6.63;;;43.50;55.70;;;;;;6215006;23;20334;-77
2021/06/12 12:49:02;;;;;;;7.82;7.18;;;42.60;56.90;;;;;;6215726;23;20023;-77
2021/06/12 12:51:28;;;;;;;7.28;6.72;;;42.90;58.90;;;;;;6214749;23;20013;-77